Time;durP1;ratioP1;P1;durP2;ratioP2;P2;SDS_P1;SDS_P2;PMS_P1;PMS_P2;Temp;Humidity;BMP_temperature;BMP_pressure;BME280_temperature;BME280_humidity;BME280_pressure;Samples;Min_cycle;Max_cycle;Signal;HPM_P1;HPM_P2
2021/01/06 00:02:21;;;;;;;38.88;19.55;;;;;;;2.49;93.30;101925.72;5060169;28;20502;-78
2021/01/06 00:04:46;;;;;;;33.85;17.88;;;;;;;2.49;92.89;101933.34;5061570;28;20025;-78
2021/01/06 00:07:11;;;;;;;34.10;17.10;;;;;;;2.50;92.77;101932.56;5065716;28;20367;-78
2021/01/06 00:09:37;;;;;;;36.97;17.97;;;;;;;2.46;93.28;101922.97;5063250;28;20274;-78
2021/01/06 00:12:05;;;;;;;33.08;17.35;;;;;;;2.46;92.79;101925.50;5066330;28;20021;-79
2021/01/06 00:14:31;;;;;;;35.10;18.13;;;;;;;2.44;92.99;101924.50;5062106;28;20024;-79
2021/01/06 00:16:56;;;;;;;35.17;17.35;;;;;;;2.45;93.00;101917.78;5059869;28;20106;-77
2021/01/06 00:19:21;;;;;;;37.03;18.23;;;;;;;2.44;93.19;101923.63;5059085;28;20021;-77
2021/01/06 00:21:47;;;;;;;34.60;17.33;;;;;;;2.43;92.89;101920.22;5064913;28;20100;-77
2021/01/06 00:24:12;;;;;;;32.25;17.95;;;;;;;2.43;92.93;101915.13;5058986;28;20371;-77
2021/01/06 00:26:38;;;;;;;33.08;17.73;;;;;;;2.44;93.13;101916.03;5061591;28;20025;-78
2021/01/06 00:29:09;;;;;;;30.02;16.67;;;;;;;2.42;93.45;101917.56;5057050;28;20078;-77
2021/01/06 00:31:37;;;;;;;34.20;17.10;;;;;;;2.41;93.12;101916.69;5064746;28;20100;-78
2021/01/06 00:34:02;;;;;;;36.87;18.63;;;;;;;2.41;92.99;101911.59;5058472;28;20029;-77
2021/01/06 00:36:27;;;;;;;38.75;18.95;;;;;;;2.39;93.11;101919.88;5066635;28;20031;-79
2021/01/06 00:38:52;;;;;;;36.57;17.93;;;;;;;2.40;93.08;101916.56;5065030;28;20098;-77
2021/01/06 00:41:26;;;;;;;38.53;19.00;;;;;;;2.41;93.46;101926.81;5063082;28;20017;-78
2021/01/06 00:43:52;;;;;;;44.07;19.43;;;;;;;2.40;93.44;101917.44;5066614;28;20082;-77
2021/01/06 00:46:18;;;;;;;36.90;18.35;;;;;;;2.41;93.31;101915.78;5065508;28;20025;-77
2021/01/06 00:48:43;;;;;;;34.53;18.48;;;;;;;2.38;93.25;101913.91;5062606;28;20024;-78
2021/01/06 00:51:08;;;;;;;36.10;17.47;;;;;;;2.41;93.06;101910.72;5065092;28;20021;-77
2021/01/06 00:53:33;;;;;;;36.60;19.20;;;;;;;2.35;93.27;101913.69;5061495;28;20029;-78
2021/01/06 00:55:59;;;;;;;39.40;18.80;;;;;;;2.34;93.40;101914.47;5063050;28;20278;-77
2021/01/06 00:58:25;;;;;;;35.88;18.67;;;;;;;2.38;93.15;101919.00;5064675;28;20075;-77
2021/01/06 01:00:50;;;;;;;33.30;16.65;;;;;;;2.39;93.04;101912.25;5065245;28;20475;-78
2021/01/06 01:03:16;;;;;;;39.88;19.05;;;;;;;2.40;92.96;101914.91;5064926;28;20048;-77
2021/01/06 01:05:41;;;;;;;32.60;16.55;;;;;;;2.37;93.17;101918.88;5066928;28;20021;-78
2021/01/06 01:08:08;;;;;;;34.20;17.47;;;;;;;2.37;93.01;101923.94;5062507;28;20432;-78
2021/01/06 01:10:43;;;;;;;32.13;16.63;;;;;;;2.38;92.92;101916.47;5064039;28;20325;-77
2021/01/06 01:13:12;;;;;;;31.80;15.50;;;;;;;2.36;92.94;101912.94;5062462;28;20025;-77
2021/01/06 01:15:39;;;;;;;28.30;16.03;;;;;;;2.35;92.87;101917.88;5065952;28;20036;-77
2021/01/06 01:18:07;;;;;;;33.63;15.63;;;;;;;2.36;92.77;101915.47;5065708;28;20022;-78
2021/01/06 01:20:32;;;;;;;32.73;16.40;;;;;;;2.37;92.79;101917.22;5062629;28;20115;-77
2021/01/06 01:22:57;;;;;;;29.80;16.15;;;;;;;2.38;92.57;101908.84;5064038;28;20457;-77
2021/01/06 01:25:26;;;;;;;34.80;16.77;;;;;;;2.37;92.96;101909.63;5071017;28;20031;-79
2021/01/06 01:27:52;;;;;;;28.10;14.83;;;;;;;2.40;92.83;101909.84;5070527;28;20039;-79
2021/01/06 01:30:20;;;;;;;;;;;;;;;2.38;92.66;101911.38;5068232;28;20116;-78
2021/01/06 01:32:46;;;;;;;33.93;15.53;;;;;;;2.38;92.33;101921.53;5069503;28;20336;-76
2021/01/06 01:35:14;;;;;;;29.77;15.93;;;;;;;2.36;92.57;101918.00;5061935;28;20031;-77
2021/01/06 01:37:44;;;;;;;32.90;18.13;;;;;;;2.36;92.79;101920.53;5068978;28;20059;-77
2021/01/06 01:40:15;;;;;;;28.43;14.50;;;;;;;2.35;92.37;101908.63;5057989;28;20031;-77
2021/01/06 01:42:40;;;;;;;28.87;15.33;;;;;;;2.34;92.98;101918.66;5063454;28;20029;-77
2021/01/06 01:45:06;;;;;;;27.10;15.30;;;;;;;2.34;92.59;101913.59;5062016;28;20029;-77
2021/01/06 01:47:40;;;;;;;28.85;14.88;;;;;;;2.33;92.70;101920.31;5061856;28;20029;-77
2021/01/06 01:50:06;;;;;;;26.90;14.73;;;;;;;2.35;92.89;101916.22;5060771;28;20091;-78
2021/01/06 01:52:41;;;;;;;30.02;15.68;;;;;;;2.32;92.68;101923.63;5062420;28;20063;-77
2021/01/06 01:55:09;;;;;;;27.27;14.53;;;;;;;2.34;92.81;101924.63;5063095;28;20020;-78
2021/01/06 01:57:43;;;;;;;28.00;14.40;;;;;;;2.35;92.48;101925.50;5065882;28;20017;-78
2021/01/06 02:00:14;;;;;;;29.50;14.17;;;;;;;2.37;92.11;101919.75;5066100;28;20035;-78
2021/01/06 02:02:50;;;;;;;28.37;15.03;;;;;;;2.31;92.31;101918.44;5065415;28;20624;-77
2021/01/06 02:05:24;;;;;;;23.20;13.52;;;;;;;2.31;91.96;101914.25;5060391;28;20025;-76
2021/01/06 02:07:58;;;;;;;29.23;14.27;;;;;;;2.29;91.78;101920.84;5066709;28;20036;-77
2021/01/06 02:10:31;;;;;;;25.53;13.03;;;;;;;2.28;91.85;101915.69;5063018;28;20483;-77
2021/01/06 02:13:18;;;;;;;24.90;13.53;;;;;;;2.29;91.40;101913.25;5060761;28;20061;-77
2021/01/06 02:15:43;;;;;;;;;;;;;;;2.31;91.58;101918.44;5058910;28;20482;-77
2021/01/06 02:18:09;;;;;;;22.60;13.10;;;;;;;2.27;91.79;101913.88;5066572;28;19920;-78
2021/01/06 02:20:35;;;;;;;;;;;;;;;2.27;91.91;101914.75;5062632;28;20036;-77
2021/01/06 02:23:01;;;;;;;23.63;13.00;;;;;;;2.23;92.10;101912.78;5069351;28;20290;-76
2021/01/06 02:25:28;;;;;;;25.58;12.18;;;;;;;2.21;91.71;101910.91;5054304;28;20032;-76
2021/01/06 02:27:55;;;;;;;20.37;12.07;;;;;;;2.21;91.22;101916.84;5056742;28;20028;-78
2021/01/06 02:30:22;;;;;;;24.10;12.50;;;;;;;2.26;91.38;101918.06;5061728;28;20036;-79
2021/01/06 02:32:49;;;;;;;24.67;13.07;;;;;;;2.23;91.87;101904.28;5065755;28;20032;-77
2021/01/06 02:35:14;;;;;;;22.20;12.50;;;;;;;2.22;92.20;101908.47;5065346;28;20073;-77
2021/01/06 02:37:40;;;;;;;18.48;11.48;;;;;;;2.21;92.43;101909.25;5064455;28;20020;-77
2021/01/06 02:40:07;;;;;;;22.38;12.65;;;;;;;2.23;91.97;101909.34;5060614;28;20479;-77
2021/01/06 02:42:32;;;;;;;17.00;11.57;;;;;;;2.17;91.72;101909.78;5060815;28;20508;-77
2021/01/06 02:44:58;;;;;;;20.65;11.10;;;;;;;2.16;92.08;101910.56;5060035;28;20025;-78
2021/01/06 02:47:24;;;;;;;19.75;11.60;;;;;;;2.14;91.88;101904.50;5055401;28;20036;-77
2021/01/06 02:49:50;;;;;;;20.17;11.73;;;;;;;2.16;91.72;101903.84;5061238;28;20028;-77
2021/01/06 02:52:38;;;;;;;16.48;10.77;;;;;;;2.10;91.55;101902.50;5057614;28;20029;-76
2021/01/06 02:55:09;;;;;;;20.80;11.90;;;;;;;2.10;91.59;101907.56;5058601;28;20402;-79
2021/01/06 02:57:36;;;;;;;17.67;11.43;;;;;;;2.05;90.92;101907.25;5065597;28;20048;-79
2021/01/06 03:00:05;;;;;;;19.77;11.73;;;;;;;2.07;90.90;101900.63;5062151;28;20039;-79
2021/01/06 03:02:30;;;;;;;20.40;10.97;;;;;;;2.05;91.44;101906.34;5065370;28;20032;-79
2021/01/06 03:05:14;;;;;;;19.98;11.70;;;;;;;2.01;91.32;101905.25;5066559;28;20017;-79
2021/01/06 03:07:40;;;;;;;19.27;11.67;;;;;;;1.96;91.19;101906.56;5071032;28;20029;-79
2021/01/06 03:10:06;;;;;;;18.50;11.20;;;;;;;1.96;91.18;101908.22;5074029;28;20025;-79
2021/01/06 03:12:33;;;;;;;20.15;11.52;;;;;;;1.95;91.50;101902.25;5069181;28;20111;-80
2021/01/06 03:15:00;;;;;;;18.13;10.53;;;;;;;1.92;90.80;101901.13;5071331;28;20067;-79
2021/01/06 03:17:29;;;;;;;20.40;11.27;;;;;;;1.92;91.31;101906.19;5066105;28;20115;-77
2021/01/06 03:19:59;;;;;;;20.77;10.97;;;;;;;1.93;91.54;101898.69;5059287;28;20108;-77
2021/01/06 03:22:27;;;;;;;15.37;10.13;;;;;;;1.90;90.82;101902.66;5060316;28;20047;-76
2021/01/06 03:25:04;;;;;;;19.93;12.10;;;;;;;1.86;91.02;101904.97;5063854;28;20030;-80
2021/01/06 03:27:31;;;;;;;;;;;;;;;1.85;90.56;101899.78;5068215;28;20542;-79
2021/01/06 03:29:58;;;;;;;20.05;12.10;;;;;;;1.86;90.71;101901.53;5068088;28;20336;-78
2021/01/06 03:32:37;;;;;;;22.07;11.73;;;;;;;1.82;90.45;101891.94;5061312;28;20088;-78
2021/01/06 03:35:11;;;;;;;20.27;11.30;;;;;;;1.84;90.56;101892.94;5063130;28;20028;-79
2021/01/06 03:38:00;;;;;;;17.27;10.63;;;;;;;1.86;90.55;101887.22;5063297;28;20028;-79
2021/01/06 03:40:34;;;;;;;17.60;9.80;;;;;;;1.82;91.10;101887.78;5065783;28;20043;-79
2021/01/06 03:43:00;;;;;;;19.83;10.80;;;;;;;1.81;90.73;101883.47;5059530;28;20514;-79
2021/01/06 03:45:29;;;;;;;19.80;11.43;;;;;;;1.82;91.13;101885.25;5067597;28;20047;-79
2021/01/06 03:48:03;;;;;;;21.13;11.67;;;;;;;1.81;90.87;101888.53;5067742;28;20398;-79
2021/01/06 03:50:34;;;;;;;19.87;11.00;;;;;;;1.82;91.23;101895.38;5067322;28;20054;-78
2021/01/06 03:53:08;;;;;;;21.57;12.17;;;;;;;1.80;91.25;101891.84;5064645;28;20036;-79
2021/01/06 03:55:50;;;;;;;21.23;11.37;;;;;;;1.78;91.18;101888.31;5062719;28;20016;-77
2021/01/06 03:58:24;;;;;;;19.67;10.83;;;;;;;1.82;90.82;101881.81;5058301;28;20499;-76
2021/01/06 04:00:59;;;;;;;21.00;11.57;;;;;;;1.83;90.84;101888.66;5065688;28;20039;-76
2021/01/06 04:03:32;;;;;;;16.73;10.57;;;;;;;1.76;91.07;101878.84;5061683;28;20482;-79
2021/01/06 04:06:01;;;;;;;19.77;11.77;;;;;;;1.76;91.36;101879.72;5060825;28;20112;-76
2021/01/06 04:08:40;;;;;;;20.40;11.17;;;;;;;1.72;90.92;101877.72;5061432;28;20025;-76
2021/01/06 04:11:07;;;;;;;18.13;10.07;;;;;;;1.75;91.08;101872.88;5055755;28;20021;-77
2021/01/06 04:13:33;;;;;;;18.20;11.23;;;;;;;1.71;90.87;101870.88;5057983;28;20099;-79
2021/01/06 04:15:58;;;;;;;21.23;10.48;;;;;;;1.70;91.17;101869.13;5060910;28;20029;-76
2021/01/06 04:18:24;;;;;;;20.40;11.82;;;;;;;1.65;90.88;101864.50;5056681;28;20025;-78
2021/01/06 04:20:49;;;;;;;17.83;10.88;;;;;;;1.66;91.21;101867.13;5059756;28;20050;-79
2021/01/06 04:23:16;;;;;;;18.98;11.38;;;;;;;1.61;90.91;101868.41;5057395;28;20028;-78
2021/01/06 04:25:44;;;;;;;18.60;10.93;;;;;;;1.60;90.67;101866.66;5062783;28;20051;-78
2021/01/06 04:28:25;;;;;;;24.43;11.43;;;;;;;1.58;91.19;101864.75;5060526;28;20020;-78
2021/01/06 04:30:57;;;;;;;22.00;11.03;;;;;;;1.60;91.24;101871.72;5068181;28;20024;-78
2021/01/06 04:33:27;;;;;;;21.73;11.23;;;;;;;1.55;91.16;101870.47;5064945;28;20025;-78
2021/01/06 04:35:54;;;;;;;20.77;10.90;;;;;;;1.56;90.85;101873.13;5060142;28;20027;-79
2021/01/06 04:38:23;;;;;;;20.00;11.47;;;;;;;1.57;91.51;101871.47;5059038;28;20029;-77
2021/01/06 04:40:53;;;;;;;18.93;10.93;;;;;;;1.54;91.18;101874.66;5062773;28;20033;-79
2021/01/06 04:43:40;;;;;;;23.33;11.70;;;;;;;1.52;90.53;101867.72;5062593;28;20039;-79
2021/01/06 04:46:08;;;;;;;19.85;11.60;;;;;;;1.51;90.88;101871.03;5061231;28;20029;-79
2021/01/06 04:48:50;;;;;;;22.87;12.17;;;;;;;1.52;91.39;101872.78;5068200;28;20113;-78
2021/01/06 04:51:31;;;;;;;17.47;10.70;;;;;;;1.56;91.32;101867.19;5058480;28;20028;-77
2021/01/06 04:54:18;;;;;;;19.90;11.33;;;;;;;1.53;91.42;101869.47;5058260;28;20025;-77
2021/01/06 04:56:57;;;;;;;;;;;;;;;1.56;91.04;101868.06;5055815;28;20098;-78
2021/01/06 04:59:32;;;;;;;20.80;10.83;;;;;;;1.45;91.00;101871.44;5076429;22;19912;-76
2021/01/06 05:02:22;;;;;;;20.23;11.33;;;;;;;1.44;90.78;101876.38;5037089;28;20104;-76
2021/01/06 05:05:23;;;;;;;19.67;11.90;;;;;;;1.43;90.81;101872.97;5041858;28;20010;-76
2021/01/06 05:08:26;;;;;;;20.20;11.63;;;;;;;1.39;90.72;101881.09;5047234;28;20025;-77
2021/01/06 05:10:59;;;;;;;20.70;11.30;;;;;;;1.39;90.92;101885.28;5042600;28;20066;-76
2021/01/06 05:13:31;;;;;;;22.30;12.70;;;;;;;1.38;90.50;101875.91;5028811;28;20025;-77
2021/01/06 05:16:05;;;;;;;21.57;11.47;;;;;;;1.41;91.39;101878.69;5027438;28;20124;-77
2021/01/06 05:18:30;;;;;;;21.53;10.87;;;;;;;1.41;90.96;101871.09;5054100;28;20031;-78
2021/01/06 05:20:57;;;;;;;20.77;11.02;;;;;;;1.41;91.27;101868.56;5041837;28;20085;-78
2021/01/06 05:23:23;;;;;;;;;;;;;;;1.44;90.87;101872.22;5052386;28;20025;-77
2021/01/06 05:25:50;;;;;;;19.23;10.38;;;;;;;1.41;90.70;101868.56;5050846;28;19958;-78
2021/01/06 05:28:17;;;;;;;22.63;11.23;;;;;;;1.38;90.75;101874.28;5051990;28;20025;-78
2021/01/06 05:30:44;;;;;;;20.57;11.77;;;;;;;1.37;91.38;101877.56;5051944;28;20540;-78
2021/01/06 05:33:12;;;;;;;19.67;10.80;;;;;;;1.36;91.01;101870.75;5048927;28;20018;-76
2021/01/06 05:35:41;;;;;;;20.83;11.53;;;;;;;1.38;91.12;101873.38;5040528;28;20064;-76
2021/01/06 05:38:07;;;;;;;19.10;11.73;;;;;;;1.36;90.69;101865.69;5046464;28;20494;-76
2021/01/06 05:40:35;;;;;;;21.23;11.35;;;;;;;1.35;90.87;101874.03;5046675;28;20029;-77
2021/01/06 05:43:07;;;;;;;19.67;10.67;;;;;;;1.34;90.61;101866.34;5050435;28;20366;-76
2021/01/06 05:45:52;;;;;;;24.23;11.73;;;;;;;1.37;90.86;101864.91;5050735;28;20025;-77
2021/01/06 05:48:27;;;;;;;21.47;11.60;;;;;;;1.32;91.42;101862.81;5052659;28;20096;-78
2021/01/06 05:51:04;;;;;;;24.80;11.10;;;;;;;1.31;90.82;101868.63;5034208;28;20053;-77
2021/01/06 05:53:44;;;;;;;21.53;11.70;;;;;;;1.34;91.32;101863.81;5036100;28;20033;-76
2021/01/06 05:56:40;;;;;;;24.07;12.10;;;;;;;1.31;90.98;101866.97;5034052;28;20071;-77
2021/01/06 05:59:40;;;;;;;20.53;10.93;;;;;;;1.33;90.83;101870.50;5010714;28;20038;-77
2021/01/06 06:02:17;;;;;;;22.07;10.57;;;;;;;1.32;90.83;101866.22;5032293;28;20103;-77
2021/01/06 06:04:48;;;;;;;;;;;;;;;1.32;91.11;101862.81;5033991;28;20513;-76
2021/01/06 06:07:13;;;;;;;21.40;11.37;;;;;;;1.33;90.83;101867.97;5043832;28;19909;-76
2021/01/06 06:09:57;;;;;;;21.50;11.50;;;;;;;1.25;91.11;101863.94;5046442;28;20521;-75
2021/01/06 06:13:05;;;;;;;22.93;11.00;;;;;;;1.28;91.53;101870.91;5033400;28;20096;-78
2021/01/06 06:15:43;;;;;;;18.33;11.13;;;;;;;1.27;90.75;101870.00;5056371;28;20518;-77
2021/01/06 06:18:53;;;;;;;23.40;11.33;;;;;;;1.28;91.20;101860.78;5042634;28;20421;-79
2021/01/06 06:21:46;;;;;;;18.83;10.90;;;;;;;1.29;91.31;101873.53;5028257;28;20043;-79
2021/01/06 06:24:20;;;;;;;19.60;11.03;;;;;;;1.28;91.00;101865.84;5042782;28;20025;-78
2021/01/06 06:27:05;;;;;;;20.80;11.53;;;;;;;1.28;91.76;101865.84;5044524;28;20087;-78
2021/01/06 06:29:41;;;;;;;20.20;12.17;;;;;;;1.29;91.59;101872.66;5038526;28;20344;-79
2021/01/06 06:32:07;;;;;;;20.20;11.13;;;;;;;1.33;91.56;101873.03;5037310;28;20116;-80
2021/01/06 06:34:36;;;;;;;20.60;11.38;;;;;;;1.30;91.48;101869.38;5044259;28;20052;-79
2021/01/06 06:37:15;;;;;;;21.93;11.33;;;;;;;1.27;91.43;101877.59;5045349;28;20029;-79
2021/01/06 06:39:47;;;;;;;18.77;10.23;;;;;;;1.29;90.77;101880.25;5036256;28;20104;-78
2021/01/06 06:42:30;;;;;;;20.53;10.47;;;;;;;1.30;91.24;101872.81;5052740;28;20025;-78
2021/01/06 06:45:36;;;;;;;18.90;10.87;;;;;;;1.28;91.46;101886.97;5057663;28;20020;-79
2021/01/06 06:48:10;;;;;;;21.50;11.20;;;;;;;1.30;90.93;101889.63;5009045;28;20034;-78
2021/01/06 06:51:12;;;;;;;19.37;10.97;;;;;;;1.31;90.57;101892.28;4993451;28;20065;-80
2021/01/06 06:53:55;;;;;;;22.10;11.60;;;;;;;1.29;90.85;101895.44;5030601;28;20135;-78
2021/01/06 06:56:46;;;;;;;19.43;10.47;;;;;;;1.33;90.69;101897.47;5033646;28;20372;-78
2021/01/06 06:59:19;;;;;;;22.67;10.87;;;;;;;1.24;90.76;101895.97;5034435;28;20022;-78
2021/01/06 07:01:45;;;;;;;19.77;11.20;;;;;;;1.23;90.77;101898.38;5036851;28;20139;-80
2021/01/06 07:04:49;;;;;;;17.80;10.77;;;;;;;1.20;90.82;101893.09;5051089;28;20091;-77
2021/01/06 07:07:44;;;;;;;16.87;9.90;;;;;;;1.22;90.52;101894.97;5038624;28;20045;-78
2021/01/06 07:10:23;;;;;;;18.70;11.07;;;;;;;1.24;90.96;101901.03;5052056;28;20024;-78
2021/01/06 07:12:53;;;;;;;20.00;11.00;;;;;;;1.30;90.99;101900.66;5058836;28;20021;-79
2021/01/06 07:15:36;;;;;;;18.77;10.93;;;;;;;1.17;90.57;101901.31;5053920;28;20045;-78
2021/01/06 07:18:36;;;;;;;19.33;10.70;;;;;;;1.13;90.84;101894.25;5040504;28;20033;-77
2021/01/06 07:21:21;;;;;;;20.90;11.80;;;;;;;1.06;90.79;101899.63;5031583;28;20030;-76
2021/01/06 07:23:55;;;;;;;19.60;11.83;;;;;;;1.01;90.77;101900.91;5032806;28;20025;-76
2021/01/06 07:26:23;;;;;;;20.23;11.20;;;;;;;1.01;90.73;101903.44;5029960;28;20063;-76
2021/01/06 07:28:57;;;;;;;19.17;10.63;;;;;;;1.05;90.73;101904.56;5034355;28;20473;-77
2021/01/06 07:31:25;;;;;;;19.07;10.93;;;;;;;0.97;90.69;101903.94;5031101;28;20029;-76
2021/01/06 07:33:57;;;;;;;20.33;11.70;;;;;;;0.94;90.74;101903.69;5031278;28;20025;-77
2021/01/06 07:36:28;;;;;;;21.40;12.10;;;;;;;0.89;91.21;101910.91;5044419;28;20037;-76
2021/01/06 07:38:55;;;;;;;20.27;12.17;;;;;;;0.90;91.20;101906.75;5043568;28;20029;-76
2021/01/06 07:41:21;;;;;;;23.37;12.30;;;;;;;0.88;90.97;101914.22;5036692;28;20514;-76
2021/01/06 07:44:16;;;;;;;19.57;11.50;;;;;;;0.89;91.08;101912.56;5039107;28;20025;-76
2021/01/06 07:46:55;;;;;;;20.83;12.00;;;;;;;0.94;91.37;101921.41;5033154;28;20043;-74
2021/01/06 07:49:33;;;;;;;19.63;12.17;;;;;;;0.94;91.29;101918.88;5056286;28;20032;-78
2021/01/06 07:52:06;;;;;;;19.93;11.33;;;;;;;0.85;90.83;101913.97;5053564;28;20036;-78
2021/01/06 07:54:41;;;;;;;22.60;11.67;;;;;;;0.89;90.97;101912.56;5044553;28;20057;-76
2021/01/06 07:57:22;;;;;;;19.93;10.93;;;;;;;0.94;90.89;101914.69;5030827;28;20065;-77
2021/01/06 07:59:57;;;;;;;21.03;11.30;;;;;;;0.93;90.46;101920.50;5029390;28;20083;-77
2021/01/06 08:02:32;;;;;;;20.87;11.50;;;;;;;0.93;91.20;101924.69;5030754;28;20033;-77
2021/01/06 08:05:17;;;;;;;19.03;11.40;;;;;;;0.92;90.85;101925.44;5028804;28;20017;-77
2021/01/06 08:07:43;;;;;;;23.80;12.50;;;;;;;0.88;90.81;101925.97;5030620;28;20029;-76
2021/01/06 08:10:23;;;;;;;18.95;11.48;;;;;;;0.88;91.07;101923.44;5032057;28;20107;-80
2021/01/06 08:12:49;;;;;;;19.70;11.00;;;;;;;0.99;90.81;101932.78;5040113;28;20041;-79
2021/01/06 08:15:18;;;;;;;22.88;11.68;;;;;;;0.90;91.02;101934.56;5038041;28;20534;-78
2021/01/06 08:18:07;;;;;;;21.53;12.03;;;;;;;0.95;91.27;101935.81;5051107;28;20390;-78
2021/01/06 08:21:06;;;;;;;21.23;11.13;;;;;;;0.93;91.15;101939.88;5049915;28;20022;-78
2021/01/06 08:23:51;;;;;;;18.57;11.20;;;;;;;1.02;91.13;101940.63;5045255;28;20028;-79
2021/01/06 08:26:28;;;;;;;16.37;9.80;;;;;;;1.01;91.13;101940.50;5055122;28;20025;-80
2021/01/06 08:29:17;;;;;;;22.08;11.73;;;;;;;1.02;90.91;101938.09;5056962;28;20032;-81
2021/01/06 08:31:44;;;;;;;18.27;10.93;;;;;;;0.95;90.80;101938.34;5057211;28;20596;-82
2021/01/06 08:34:20;;;;;;;21.20;11.80;;;;;;;0.98;91.04;101946.22;5056374;28;20083;-80
2021/01/06 08:36:53;;;;;;;19.23;11.05;;;;;;;0.96;90.94;101941.75;5043712;28;20034;-81
2021/01/06 08:39:23;;;;;;;19.73;11.50;;;;;;;0.98;90.60;101941.16;5055868;28;20025;-80
2021/01/06 08:41:50;;;;;;;19.83;11.57;;;;;;;0.96;90.70;101940.09;5057110;28;20063;-81
2021/01/06 08:44:32;;;;;;;20.57;11.23;;;;;;;0.93;90.67;101944.94;5054529;28;20021;-81
2021/01/06 08:47:00;;;;;;;19.63;10.60;;;;;;;0.96;90.99;101941.75;5042472;28;20034;-79
2021/01/06 08:49:34;;;;;;;21.20;10.73;;;;;;;0.96;90.77;101941.75;5057650;28;20033;-79
2021/01/06 08:52:18;;;;;;;20.87;11.27;;;;;;;1.02;91.25;101948.22;5060209;28;20063;-81
2021/01/06 08:54:46;;;;;;;18.57;10.13;;;;;;;1.03;90.65;101939.88;5060578;28;20056;-80
2021/01/06 08:57:26;;;;;;;18.10;10.20;;;;;;;1.08;90.71;101928.44;5044508;28;20036;-81
2021/01/06 08:59:51;;;;;;;21.00;10.33;;;;;;;1.12;90.42;101939.69;5050072;28;20033;-81
2021/01/06 09:02:23;;;;;;;17.53;10.20;;;;;;;1.15;89.98;101940.81;5051568;28;20032;-80
2021/01/06 09:04:48;;;;;;;18.33;10.73;;;;;;;1.11;90.00;101938.81;5060289;28;20307;-82
2021/01/06 09:07:21;;;;;;;19.85;10.25;;;;;;;1.15;90.15;101935.75;5049439;28;20025;-82
2021/01/06 09:10:18;;;;;;;18.50;10.87;;;;;;;1.17;90.56;101939.28;5052826;28;20032;-80
2021/01/06 09:12:54;;;;;;;13.70;7.87;;;;;;;1.25;90.40;101945.81;5056502;28;20056;-81
2021/01/06 09:15:32;;;;;;;15.25;8.15;;;;;;;1.25;89.46;101940.75;5059033;28;21258;-84
2021/01/06 09:18:12;;;;;;;20.90;10.93;;;;;;;1.27;89.51;101943.41;5045280;28;20112;-83
2021/01/06 09:20:53;;;;;;;22.90;10.50;;;;;;;1.34;89.54;101942.28;5045504;28;20025;-83
2021/01/06 09:23:19;;;;;;;19.90;9.77;;;;;;;1.41;89.16;101944.50;5047832;28;20021;-83
2021/01/06 09:25:45;;;;;;;;;;;;;;;1.43;89.18;101938.78;5046161;28;20105;-82
2021/01/06 09:28:13;;;;;;;13.83;8.93;;;;;;;1.44;88.21;101944.75;5046417;28;19978;-82
2021/01/06 09:30:39;;;;;;;16.97;8.93;;;;;;;1.50;89.07;101935.09;5048143;28;20033;-82
2021/01/06 09:33:15;;;;;;;15.77;9.38;;;;;;;1.56;88.52;101943.16;5048663;28;20071;-83
2021/01/06 09:35:41;;;;;;;17.33;9.38;;;;;;;1.60;87.94;101934.13;5039000;28;20033;-80
2021/01/06 09:38:17;;;;;;;15.38;8.98;;;;;;;1.64;87.74;101943.75;5054285;28;20026;-81
2021/01/06 09:40:43;;;;;;;15.38;9.25;;;;;;;1.68;88.27;101935.63;5047957;28;20107;-80
2021/01/06 09:43:21;;;;;;;17.48;9.43;;;;;;;1.69;87.45;101933.22;5058039;28;20025;-80
2021/01/06 09:45:47;;;;;;;20.57;8.70;;;;;;;1.76;87.13;101940.50;5037785;28;20029;-79
2021/01/06 09:48:14;;;;;;;17.80;8.88;;;;;;;1.75;87.56;101937.84;5039911;28;20068;-81
2021/01/06 09:50:50;;;;;;;16.53;9.43;;;;;;;1.76;87.95;101940.50;5039753;28;20029;-82
2021/01/06 09:53:20;;;;;;;16.10;9.63;;;;;;;1.79;87.19;101935.69;5045472;28;20021;-83
2021/01/06 09:55:49;;;;;;;16.43;9.40;;;;;;;1.85;87.54;101935.25;5046094;28;20030;-82
2021/01/06 09:58:29;;;;;;;18.20;9.00;;;;;;;1.98;86.84;101932.00;5049301;28;20029;-82
2021/01/06 10:01:11;;;;;;;16.07;9.37;;;;;;;1.95;86.78;101929.22;5045750;28;20048;-82
2021/01/06 10:03:39;;;;;;;17.67;8.90;;;;;;;1.98;87.33;101924.41;5061135;28;20434;-82
2021/01/06 10:06:23;;;;;;;15.40;8.87;;;;;;;2.06;86.76;101931.81;5057616;28;20118;-82
2021/01/06 10:09:17;;;;;;;14.87;8.97;;;;;;;2.06;87.16;101925.88;5049593;28;20092;-82
2021/01/06 10:12:02;;;;;;;15.27;8.43;;;;;;;2.18;86.39;101932.72;5036253;28;20038;-82
2021/01/06 10:14:32;;;;;;;15.20;9.57;;;;;;;2.24;86.80;101919.59;5045209;28;20116;-82
2021/01/06 10:17:06;;;;;;;13.97;8.80;;;;;;;2.29;86.58;101920.84;5056302;28;20088;-82
2021/01/06 10:19:40;;;;;;;19.53;9.37;;;;;;;2.35;86.44;101918.78;5045171;28;20029;-82
2021/01/06 10:22:38;;;;;;;16.27;9.13;;;;;;;2.35;85.61;101925.50;5039270;28;20104;-82
2021/01/06 10:25:18;;;;;;;15.17;9.37;;;;;;;2.44;86.32;101919.44;5052743;28;20035;-81
2021/01/06 10:28:17;;;;;;;16.67;9.50;;;;;;;2.64;85.64;101914.94;5040903;28;20033;-81
2021/01/06 10:31:05;;;;;;;17.43;9.73;;;;;;;2.57;84.47;101908.53;5038054;28;20051;-81
2021/01/06 10:33:32;;;;;;;18.00;9.53;;;;;;;2.83;84.47;101904.44;5048020;28;20029;-81
2021/01/06 10:35:57;;;;;;;16.13;9.13;;;;;;;2.93;85.09;101905.25;5040777;28;20051;-80
2021/01/06 10:38:27;;;;;;;17.95;9.90;;;;;;;3.08;86.05;101906.31;5046562;28;20060;-82
2021/01/06 10:41:21;;;;;;;17.53;9.90;;;;;;;3.09;84.25;101895.38;5048396;28;20033;-81
2021/01/06 10:43:54;;;;;;;26.50;9.73;;;;;;;3.13;85.08;101904.09;5040504;28;20045;-82
2021/01/06 10:46:43;;;;;;;17.80;9.67;;;;;;;3.21;84.70;101897.00;5043139;28;20029;-82
2021/01/06 10:49:20;;;;;;;15.90;9.37;;;;;;;2.83;84.85;101894.31;5052480;28;20044;-81
2021/01/06 10:51:54;;;;;;;15.70;8.67;;;;;;;2.79;85.37;101890.66;5056363;28;20028;-82
2021/01/06 10:54:49;;;;;;;15.60;9.53;;;;;;;2.67;85.62;101894.88;5054285;28;20032;-82
2021/01/06 10:57:38;;;;;;;16.43;9.87;;;;;;;2.57;85.06;101888.22;5026674;28;20445;-82
2021/01/06 11:00:23;;;;;;;19.20;9.20;;;;;;;2.60;86.51;101888.47;5031908;28;20037;-82
2021/01/06 11:03:07;;;;;;;16.67;8.87;;;;;;;2.70;86.93;101877.34;5039318;28;20052;-82
2021/01/06 11:05:52;;;;;;;15.83;9.57;;;;;;;2.79;87.02;101877.97;5056846;28;20176;-83
2021/01/06 11:08:36;;;;;;;17.53;9.50;;;;;;;2.76;87.11;101875.22;5040387;28;20056;-83
2021/01/06 11:11:23;;;;;;;18.93;9.80;;;;;;;2.78;87.39;101872.03;5050712;28;20029;-83
2021/01/06 11:14:27;;;;;;;16.95;9.07;;;;;;;2.72;86.28;101871.59;5036276;28;20036;-81
2021/01/06 11:17:16;;;;;;;17.17;8.63;;;;;;;2.79;86.15;101860.22;5037752;28;20105;-82
2021/01/06 11:19:41;;;;;;;18.17;9.50;;;;;;;2.79;86.96;101857.69;5029444;28;20044;-81
2021/01/06 11:22:35;;;;;;;15.27;9.30;;;;;;;2.80;86.22;101851.84;5054474;28;20032;-82
2021/01/06 11:25:22;;;;;;;18.27;9.07;;;;;;;2.80;86.21;101847.63;5027030;28;20033;-82
2021/01/06 11:28:09;;;;;;;15.55;9.07;;;;;;;2.87;87.07;101851.47;5035414;28;20100;-81
2021/01/06 11:30:39;;;;;;;15.15;9.70;;;;;;;2.89;86.85;101852.47;5035105;28;20048;-82
2021/01/06 11:33:14;;;;;;;18.53;9.57;;;;;;;2.89;86.60;101847.41;5034721;28;20033;-82
2021/01/06 11:35:58;;;;;;;14.80;9.43;;;;;;;2.86;86.81;101844.66;5033893;28;20635;-81
2021/01/06 11:38:38;;;;;;;17.30;9.67;;;;;;;2.90;87.07;101844.09;5035727;28;20124;-80
2021/01/06 11:41:07;;;;;;;15.77;8.93;;;;;;;2.89;86.93;101837.25;5041916;28;20458;-81
2021/01/06 11:43:43;;;;;;;19.63;9.90;;;;;;;2.87;86.98;101837.91;5054861;28;20033;-82
2021/01/06 11:46:33;;;;;;;20.90;10.00;;;;;;;2.86;87.02;101837.03;5055517;28;20029;-81
2021/01/06 11:49:11;;;;;;;16.80;9.57;;;;;;;2.88;86.49;101827.00;5056186;28;20083;-81
2021/01/06 11:51:37;;;;;;;16.53;9.07;;;;;;;2.84;86.21;101827.56;5055658;28;20037;-81
2021/01/06 11:54:27;;;;;;;19.03;9.20;;;;;;;2.89;87.08;101821.13;5055719;28;20025;-82
2021/01/06 11:57:18;;;;;;;15.47;9.13;;;;;;;2.92;86.95;101824.78;5055618;28;20032;-81